createdAt,value
2022-10-02T00:00:56.911Z,98.08
2022-10-02T00:05:57.656Z,98.24
2022-10-02T00:10:58.562Z,97.83
2022-10-02T00:15:59.335Z,97.53
2022-10-02T00:21:00.206Z,97.33
2022-10-02T00:26:01.017Z,97.22
2022-10-02T00:31:01.745Z,97.33
2022-10-02T00:36:02.456Z,97.53
2022-10-02T00:41:03.176Z,97.42
2022-10-02T00:46:03.940Z,97.74
2022-10-02T00:51:04.722Z,97.74
2022-10-02T00:56:05.442Z,97.33
2022-10-02T01:01:06.240Z,97.22
2022-10-02T01:06:06.931Z,97.33
2022-10-02T01:11:07.626Z,97.02
2022-10-02T01:16:08.455Z,97.12
2022-10-02T01:21:09.176Z,96.51
2022-10-02T01:26:09.940Z,96.30
2022-10-02T01:31:10.831Z,96.30
2022-10-02T01:36:11.709Z,96.41
2022-10-02T01:41:12.474Z,96.55
2022-10-02T01:46:13.201Z,96.75
2022-10-02T01:51:13.847Z,97.06
2022-10-02T01:56:14.749Z,96.66
2022-10-02T02:01:15.592Z,96.55
2022-10-02T02:06:16.469Z,96.55
2022-10-02T02:11:17.138Z,96.75
2022-10-02T02:16:18.066Z,96.86
2022-10-02T02:21:21.955Z,96.86
2022-10-02T02:26:19.427Z,96.75
2022-10-02T02:31:20.295Z,96.55
2022-10-02T02:36:21.062Z,96.59
2022-10-02T02:41:21.876Z,96.70
2022-10-02T02:46:22.747Z,96.80
2022-10-02T02:51:23.546Z,96.70
2022-10-02T02:56:24.408Z,96.59
2022-10-02T03:01:25.159Z,96.59
2022-10-02T03:06:26.016Z,96.59
2022-10-02T03:11:26.839Z,96.59
2022-10-02T03:16:27.600Z,96.39
2022-10-02T03:21:28.378Z,96.39
2022-10-02T03:26:29.032Z,96.59
2022-10-02T03:31:29.976Z,96.70
2022-10-02T03:36:30.818Z,96.80
2022-10-02T03:41:31.638Z,97.11
2022-10-02T03:46:32.521Z,97.00
2022-10-02T03:51:33.257Z,96.91
2022-10-02T03:56:34.395Z,96.91
2022-10-02T04:01:34.963Z,96.39
2022-10-02T04:06:36.026Z,96.19
2022-10-02T04:11:36.524Z,96.08
2022-10-02T04:16:37.758Z,96.08
2022-10-02T04:21:38.075Z,95.67
2022-10-02T04:26:39.194Z,95.67
2022-10-02T04:31:39.622Z,95.67
2022-10-02T04:36:40.340Z,95.53
2022-10-02T04:41:41.152Z,95.12
2022-10-02T04:46:41.826Z,95.43
2022-10-02T04:51:42.452Z,95.02
2022-10-02T04:56:43.162Z,94.36
2022-10-02T05:01:43.941Z,93.95
2022-10-02T05:06:44.602Z,93.54
2022-10-02T05:11:45.337Z,93.70
2022-10-02T05:16:46.051Z,92.58
2022-10-02T05:21:46.705Z,92.99
2022-10-02T05:26:47.377Z,93.19
2022-10-02T05:31:48.213Z,93.19
2022-10-02T05:36:48.868Z,93.09
2022-10-02T05:41:49.606Z,93.19
2022-10-02T05:46:50.499Z,93.19
2022-10-02T05:51:51.133Z,93.40
2022-10-02T05:56:51.842Z,93.15
2022-10-02T06:01:52.520Z,92.64
2022-10-02T06:06:53.318Z,94.14
2022-10-02T06:11:53.961Z,88.75
2022-10-02T06:16:54.799Z,87.90
2022-10-02T06:21:55.499Z,88.81
2022-10-02T06:27:03.168Z,88.61
2022-10-02T06:31:56.926Z,89.22
2022-10-02T06:36:57.610Z,89.42
2022-10-02T06:41:58.305Z,88.92
2022-10-02T06:46:59.013Z,88.71
2022-10-02T06:51:59.797Z,89.22
2022-10-02T06:57:00.469Z,88.92
2022-10-02T07:02:01.225Z,87.45
2022-10-02T07:07:01.875Z,88.31
2022-10-02T07:12:02.545Z,88.51
2022-10-02T07:17:03.235Z,89.22
2022-10-02T07:22:20.219Z,89.22
2022-10-02T07:27:05.480Z,89.73
2022-10-02T07:32:05.166Z,89.38
2022-10-02T07:37:05.863Z,88.06
2022-10-02T07:42:06.633Z,87.65
2022-10-02T07:47:07.312Z,87.51
2022-10-02T07:52:07.967Z,86.45
2022-10-02T07:57:10.001Z,85.94
2022-10-02T08:02:09.330Z,85.39
2022-10-02T08:07:10.052Z,83.08
2022-10-02T08:12:10.699Z,82.53
2022-10-02T08:17:11.391Z,81.07
2022-10-02T08:22:12.027Z,81.72
2022-10-02T08:27:12.918Z,81.68
2022-10-02T08:32:13.594Z,81.52
2022-10-02T08:37:14.178Z,81.38
2022-10-02T08:42:14.842Z,81.18
2022-10-02T08:47:15.511Z,80.43
2022-10-02T08:52:16.192Z,81.04
2022-10-02T08:57:16.843Z,79.68
2022-10-02T09:02:17.565Z,80.12
2022-10-02T09:07:18.322Z,79.38
2022-10-02T09:12:18.978Z,79.64
2022-10-02T09:17:19.642Z,78.93
2022-10-02T09:22:20.358Z,78.93
2022-10-02T09:27:20.979Z,79.34
2022-10-02T09:32:21.839Z,78.93
2022-10-02T09:37:22.679Z,79.44
2022-10-02T09:42:23.541Z,79.24
2022-10-02T09:47:24.355Z,79.13
2022-10-02T09:52:25.158Z,77.98
2022-10-02T09:57:25.955Z,77.07
2022-10-02T10:02:27.544Z,76.97
2022-10-02T10:07:27.354Z,76.77
2022-10-02T10:12:28.172Z,78.22
2022-10-02T10:17:28.991Z,79.17
2022-10-02T10:22:34.969Z,82.45
2022-10-02T10:27:30.169Z,85.39
2022-10-02T10:32:30.785Z,85.17
2022-10-02T10:37:31.443Z,81.55
2022-10-02T10:42:44.733Z,82.14
2022-10-02T10:47:33.707Z,82.52
2022-10-02T10:52:33.396Z,83.53
2022-10-02T10:57:34.017Z,83.83
2022-10-02T11:02:34.701Z,85.30
2022-10-02T11:07:35.371Z,86.05
2022-10-02T11:12:36.029Z,87.61
2022-10-02T11:17:36.746Z,89.07
2022-10-02T11:22:37.414Z,89.42
2022-10-02T11:27:38.058Z,90.84
2022-10-02T11:32:38.715Z,90.17
2022-10-02T11:37:39.372Z,88.50
2022-10-02T11:42:40.102Z,87.00
2022-10-02T11:47:40.833Z,86.35
2022-10-02T11:52:45.927Z,86.21
2022-10-02T11:57:43.052Z,85.05
2022-10-02T12:02:42.826Z,84.20
2022-10-02T12:07:43.515Z,81.99
2022-10-02T12:12:44.228Z,81.79
2022-10-02T12:17:44.915Z,81.39
2022-10-02T12:22:45.624Z,79.33
2022-10-02T12:27:46.372Z,77.73
2022-10-02T12:32:47.205Z,74.50
2022-10-02T12:37:47.876Z,73.79
2022-10-02T12:42:48.533Z,74.37
2022-10-02T12:47:49.277Z,73.86
2022-10-02T12:52:50.089Z,71.10
2022-10-02T12:57:57.703Z,69.04
2022-10-02T13:03:01.806Z,67.86
2022-10-02T13:07:53.057Z,67.73
2022-10-02T13:12:52.795Z,67.80
2022-10-02T13:17:53.406Z,68.10
2022-10-02T13:22:54.112Z,68.84
2022-10-02T13:27:54.902Z,68.70
2022-10-02T13:32:55.839Z,70.56
2022-10-02T13:37:56.611Z,70.96
2022-10-02T13:42:57.556Z,71.80
2022-10-02T13:47:58.198Z,72.81
2022-10-02T13:52:58.948Z,72.17
2022-10-02T13:57:59.807Z,72.48
2022-10-02T14:03:00.683Z,72.38
2022-10-02T14:08:01.458Z,72.24
2022-10-02T14:13:02.181Z,71.30
2022-10-02T14:18:02.881Z,69.14
2022-10-02T14:23:04.549Z,68.43
2022-10-02T14:28:04.185Z,65.47
2022-10-02T14:33:04.803Z,66.21
2022-10-02T14:38:05.506Z,66.61
2022-10-02T14:43:06.151Z,65.47
2022-10-02T14:48:06.985Z,65.61
2022-10-02T14:53:07.732Z,65.91
2022-10-02T14:58:08.418Z,66.85
2022-10-02T15:03:10.051Z,67.29
2022-10-02T15:08:09.685Z,66.88
2022-10-02T15:13:10.527Z,68.19
2022-10-02T15:18:11.209Z,68.73
2022-10-02T15:23:11.857Z,69.34
2022-10-02T15:28:35.408Z,69.37
2022-10-02T15:33:14.123Z,69.27
2022-10-02T15:38:13.764Z,69.88
2022-10-02T15:43:14.489Z,70.29
2022-10-02T15:48:15.194Z,70.29
2022-10-02T15:53:15.849Z,70.69
2022-10-02T15:58:16.506Z,71.53
2022-10-02T16:03:17.248Z,71.64
2022-10-02T16:08:17.926Z,72.55
2022-10-02T16:13:18.669Z,73.05
2022-10-02T16:18:19.321Z,74.00
2022-10-02T16:23:20.002Z,74.95
2022-10-02T16:28:20.885Z,75.90
2022-10-02T16:33:21.669Z,76.61
2022-10-02T16:38:22.346Z,77.12
2022-10-02T16:43:23.083Z,77.66
2022-10-02T16:48:23.754Z,78.17
2022-10-02T16:53:24.529Z,78.57
2022-10-02T16:58:25.223Z,79.22
2022-10-02T17:03:25.915Z,79.72
2022-10-02T17:08:26.751Z,80.24
2022-10-02T17:13:27.504Z,80.68
2022-10-02T17:18:28.305Z,81.39
2022-10-02T17:23:29.160Z,81.84
2022-10-02T17:28:30.215Z,82.24
2022-10-02T17:33:35.215Z,82.54
2022-10-02T17:38:31.123Z,82.75
2022-10-02T17:43:31.881Z,82.99
2022-10-02T17:48:32.792Z,82.99
2022-10-02T17:53:36.836Z,82.99
2022-10-02T17:58:34.703Z,83.44
2022-10-02T18:03:35.204Z,83.44
2022-10-02T18:08:35.635Z,83.95
2022-10-02T18:13:36.364Z,84.15
2022-10-02T18:18:37.144Z,84.05
2022-10-02T18:23:37.863Z,84.09
2022-10-02T18:28:38.570Z,84.39
2022-10-02T18:33:39.313Z,84.50
2022-10-02T18:38:40.047Z,84.70
2022-10-02T18:43:40.802Z,84.84
2022-10-02T18:48:41.534Z,84.84
2022-10-02T18:53:42.318Z,84.74
2022-10-02T18:58:43.083Z,84.64
2022-10-02T19:03:43.778Z,84.74
2022-10-02T19:08:44.683Z,84.84
2022-10-02T19:13:45.485Z,84.84
2022-10-02T19:18:46.236Z,84.67
2022-10-02T19:23:49.221Z,84.78
2022-10-02T19:28:47.629Z,84.47
2022-10-02T19:33:48.405Z,84.78
2022-10-02T19:38:49.291Z,84.92
2022-10-02T19:43:50.089Z,85.13
2022-10-02T19:48:51.048Z,85.43
2022-10-02T19:53:51.495Z,85.84
2022-10-02T19:58:51.883Z,85.84
2022-10-02T20:03:52.901Z,86.18
2022-10-02T20:09:00.079Z,86.59
2022-10-02T20:13:53.746Z,86.80
2022-10-02T20:18:54.474Z,86.90
2022-10-02T20:23:55.236Z,86.90
2022-10-02T20:28:56.048Z,87.00
2022-10-02T20:33:56.704Z,86.94
2022-10-02T20:38:57.654Z,86.83
2022-10-02T20:43:58.039Z,86.83
2022-10-02T20:49:13.505Z,86.83
2022-10-02T20:54:00.332Z,87.04
2022-10-02T20:59:00.291Z,86.83
2022-10-02T21:04:01.111Z,86.94
2022-10-02T21:09:01.919Z,86.98
2022-10-02T21:14:02.743Z,86.98
2022-10-02T21:19:03.422Z,87.08
2022-10-02T21:24:04.252Z,87.29
2022-10-02T21:29:05.010Z,87.38
2022-10-02T21:34:05.986Z,87.38
2022-10-02T21:39:06.278Z,87.38
2022-10-02T21:44:07.041Z,87.59
2022-10-02T21:49:07.877Z,87.70
2022-10-02T21:54:08.682Z,87.94
2022-10-02T21:59:09.406Z,88.04
2022-10-02T22:04:10.130Z,88.04
2022-10-02T22:09:10.995Z,88.14
2022-10-02T22:14:11.694Z,88.35
2022-10-02T22:19:14.720Z,88.45
2022-10-02T22:24:14.224Z,88.65
2022-10-02T22:29:14.190Z,88.76
2022-10-02T22:34:14.412Z,89.17
2022-10-02T22:39:15.172Z,89.26
2022-10-02T22:44:15.835Z,89.61
2022-10-02T22:49:16.611Z,89.72
2022-10-02T22:54:17.330Z,90.02
2022-10-02T22:59:18.058Z,90.33
2022-10-02T23:04:18.796Z,90.53
2022-10-02T23:09:19.493Z,90.74
2022-10-02T23:14:20.234Z,91.05
2022-10-02T23:19:20.913Z,91.15
2022-10-02T23:24:21.688Z,91.50
2022-10-02T23:29:22.435Z,91.70
2022-10-02T23:34:23.195Z,92.01
2022-10-02T23:39:23.909Z,91.86
2022-10-02T23:44:24.762Z,91.86
2022-10-02T23:49:25.456Z,92.07
2022-10-02T23:54:26.324Z,92.17
2022-10-02T23:59:27.131Z,92.27
